createdAt,value
2018-02-01T00:00:19.590Z,2.47
2018-02-01T00:02:47.255Z,2.43
2018-02-01T00:05:15.104Z,2.42
2018-02-01T00:07:42.802Z,2.38
2018-02-01T00:10:10.775Z,2.40
2018-02-01T00:12:38.473Z,2.34
2018-02-01T00:15:06.197Z,2.29
2018-02-01T00:17:33.933Z,2.30
2018-02-01T00:20:01.871Z,2.30
2018-02-01T00:22:29.488Z,2.27
2018-02-01T00:24:57.173Z,2.27
2018-02-01T00:27:24.923Z,2.27
2018-02-01T00:29:53.045Z,2.25
2018-02-01T00:32:20.737Z,2.24
2018-02-01T00:34:48.443Z,2.24
2018-02-01T00:37:16.176Z,2.22
2018-02-01T00:39:43.914Z,2.19
2018-02-01T00:42:11.729Z,2.19
2018-02-01T00:44:39.608Z,2.18
2018-02-01T00:47:07.309Z,2.20
2018-02-01T00:49:34.978Z,2.20
2018-02-01T00:52:02.927Z,2.21
2018-02-01T00:54:30.614Z,2.19
2018-02-01T00:56:58.352Z,2.19
2018-02-01T00:59:26.051Z,2.17
2018-02-01T01:01:53.735Z,2.14
2018-02-01T01:04:21.721Z,2.12
2018-02-01T01:06:49.418Z,2.08
2018-02-01T01:09:17.052Z,2.03
2018-02-01T01:11:44.821Z,2.04
2018-02-01T01:14:12.805Z,2.06
2018-02-01T01:16:40.468Z,2.07
2018-02-01T01:19:08.451Z,2.03
2018-02-01T01:21:36.105Z,2.00
2018-02-01T01:24:03.783Z,2.00
2018-02-01T01:26:31.475Z,1.99
2018-02-01T01:28:59.092Z,1.97
2018-02-01T01:31:26.753Z,1.96
2018-02-01T01:33:54.486Z,1.95
2018-02-01T01:36:22.113Z,1.93
2018-02-01T01:38:49.737Z,1.94
2018-02-01T01:41:17.389Z,1.91
2018-02-01T01:43:45.023Z,1.94
2018-02-01T01:46:12.717Z,1.92
2018-02-01T01:48:40.392Z,1.94
2018-02-01T01:51:08.015Z,1.96
2018-02-01T01:53:35.680Z,1.97
2018-02-01T01:56:03.298Z,1.99
2018-02-01T01:58:30.962Z,1.99
2018-02-01T02:00:58.609Z,2.00
2018-02-01T02:03:26.310Z,1.98
2018-02-01T02:05:53.929Z,1.97
2018-02-01T02:08:21.561Z,1.99
2018-02-01T02:10:49.223Z,1.97
2018-02-01T02:13:16.879Z,1.98
2018-02-01T02:15:44.830Z,1.98
2018-02-01T02:18:12.594Z,1.96
2018-02-01T02:20:40.229Z,1.96
2018-02-01T02:23:08.274Z,1.96
2018-02-01T02:25:36.242Z,1.94
2018-02-01T02:28:03.902Z,1.91
2018-02-01T02:30:31.543Z,1.88
2018-02-01T02:32:59.199Z,1.87
2018-02-01T02:35:26.852Z,1.90
2018-02-01T02:37:54.478Z,1.90
2018-02-01T02:40:22.142Z,1.89
2018-02-01T02:42:49.784Z,1.92
2018-02-01T02:45:17.458Z,1.95
2018-02-01T02:47:45.152Z,1.96
2018-02-01T02:50:12.806Z,1.98
2018-02-01T02:52:40.537Z,2.01
2018-02-01T02:55:08.390Z,2.03
2018-02-01T02:57:36.067Z,2.05
2018-02-01T03:00:03.761Z,2.07
2018-02-01T03:02:31.443Z,2.10
2018-02-01T03:04:59.141Z,2.11
2018-02-01T03:07:26.775Z,2.12
2018-02-01T03:09:54.684Z,2.11
2018-02-01T03:12:22.855Z,2.08
2018-02-01T03:14:50.573Z,2.10
2018-02-01T03:17:18.218Z,2.12
2018-02-01T03:19:46.236Z,2.14
2018-02-01T03:22:14.231Z,2.19
2018-02-01T03:24:50.300Z,2.25
2018-02-01T03:27:18.776Z,2.29
2018-02-01T03:29:46.416Z,2.27
2018-02-01T03:32:14.006Z,2.28
2018-02-01T03:34:41.676Z,2.26
2018-02-01T03:37:09.295Z,2.29
2018-02-01T03:39:36.895Z,2.29
2018-02-01T03:42:04.492Z,2.28
2018-02-01T03:44:32.136Z,2.29
2018-02-01T03:46:59.766Z,2.32
2018-02-01T03:49:27.436Z,2.33
2018-02-01T03:51:55.049Z,2.34
2018-02-01T03:54:22.672Z,2.32
2018-02-01T03:56:50.670Z,2.31
2018-02-01T03:59:18.279Z,2.28
2018-02-01T04:01:46.246Z,2.29
2018-02-01T04:04:13.898Z,2.32
2018-02-01T04:06:42.033Z,2.35
2018-02-01T04:09:09.681Z,2.35
2018-02-01T04:11:37.318Z,2.38
2018-02-01T04:14:05.339Z,2.37
2018-02-01T04:16:32.966Z,2.38
2018-02-01T04:19:00.575Z,2.37
2018-02-01T04:21:28.212Z,2.38
2018-02-01T04:23:55.877Z,2.40
2018-02-01T04:26:23.517Z,2.44
2018-02-01T04:28:51.235Z,2.42
2018-02-01T04:31:18.856Z,2.45
2018-02-01T04:33:46.452Z,2.47
2018-02-01T04:36:14.129Z,2.48
2018-02-01T04:38:41.744Z,2.48
2018-02-01T04:41:09.370Z,2.45
2018-02-01T04:43:37.038Z,2.39
2018-02-01T04:46:04.969Z,2.36
2018-02-01T04:48:32.608Z,2.39
2018-02-01T04:51:00.314Z,2.40
2018-02-01T04:53:28.067Z,2.42
2018-02-01T04:55:55.712Z,2.43
2018-02-01T04:58:23.394Z,2.45
2018-02-01T05:00:51.043Z,2.47
2018-02-01T05:03:19.030Z,2.51
2018-02-01T05:05:46.657Z,2.55
2018-02-01T05:08:14.315Z,2.56
2018-02-01T05:10:41.974Z,2.63
2018-02-01T05:13:09.647Z,2.65
2018-02-01T05:15:37.296Z,2.68
2018-02-01T05:18:04.997Z,2.65
2018-02-01T05:20:32.657Z,2.66
2018-02-01T05:23:00.323Z,2.67
2018-02-01T05:25:27.997Z,2.67
2018-02-01T05:27:55.581Z,2.68
2018-02-01T05:30:23.252Z,2.68
2018-02-01T05:32:50.952Z,2.70
2018-02-01T05:35:18.547Z,2.70
2018-02-01T05:37:46.226Z,2.72
2018-02-01T05:40:13.944Z,2.78
2018-02-01T05:42:41.672Z,2.78
2018-02-01T05:45:09.704Z,2.78
2018-02-01T05:47:37.441Z,2.81
2018-02-01T05:50:05.087Z,2.86
2018-02-01T05:52:32.966Z,2.88
2018-02-01T05:55:00.569Z,2.88
2018-02-01T05:57:28.604Z,2.87
2018-02-01T06:00:00.118Z,2.86
2018-02-01T06:02:27.855Z,2.87
2018-02-01T06:04:55.497Z,2.90
2018-02-01T06:07:23.116Z,2.87
2018-02-01T06:09:50.790Z,2.87
2018-02-01T06:12:18.424Z,2.87
2018-02-01T06:14:46.308Z,2.86
2018-02-01T06:17:14.023Z,2.88
2018-02-01T06:19:42.060Z,2.90
2018-02-01T06:22:09.740Z,2.88
2018-02-01T06:24:37.514Z,2.90
2018-02-01T06:27:05.530Z,2.89
2018-02-01T06:29:33.245Z,2.91
2018-02-01T06:32:01.006Z,2.90
2018-02-01T06:34:29.118Z,2.91
2018-02-01T06:36:57.168Z,2.90
2018-02-01T06:39:24.813Z,2.91
2018-02-01T06:41:52.564Z,2.89
2018-02-01T06:44:20.732Z,2.88
2018-02-01T06:46:48.824Z,2.87
2018-02-01T06:49:16.462Z,2.85
2018-02-01T06:51:44.119Z,2.83
2018-02-01T06:54:11.887Z,2.82
2018-02-01T06:56:39.584Z,2.79
2018-02-01T06:59:07.373Z,2.78
2018-02-01T07:01:35.140Z,2.78
2018-02-01T07:04:03.068Z,2.79
2018-02-01T07:06:30.793Z,2.76
2018-02-01T07:08:58.758Z,2.73
2018-02-01T07:11:26.526Z,2.76
2018-02-01T07:13:54.298Z,2.74
2018-02-01T07:16:22.011Z,2.74
2018-02-01T07:18:49.695Z,2.74
2018-02-01T07:21:17.435Z,2.76
2018-02-01T07:23:45.170Z,2.75
2018-02-01T07:26:13.111Z,2.74
2018-02-01T07:28:40.819Z,2.74
2018-02-01T07:31:09.254Z,2.75
2018-02-01T07:33:37.037Z,2.77
2018-02-01T07:36:04.892Z,2.78
2018-02-01T07:38:32.682Z,2.78
2018-02-01T07:41:00.489Z,2.79
2018-02-01T07:43:28.322Z,2.78
2018-02-01T07:45:56.112Z,2.80
2018-02-01T07:48:23.889Z,2.79
2018-02-01T07:50:52.047Z,2.82
2018-02-01T07:53:19.820Z,2.83
2018-02-01T07:55:47.633Z,2.85
2018-02-01T07:58:15.859Z,2.88
2018-02-01T08:00:43.656Z,2.86
2018-02-01T08:03:11.418Z,2.85
2018-02-01T08:05:39.251Z,2.88
2018-02-01T08:08:07.011Z,2.88
2018-02-01T08:10:34.825Z,2.87
2018-02-01T08:13:02.566Z,2.88
2018-02-01T08:15:30.335Z,2.88
2018-02-01T08:17:58.074Z,2.90
2018-02-01T08:20:26.371Z,2.89
2018-02-01T08:22:54.220Z,2.87
2018-02-01T08:25:22.348Z,2.83
2018-02-01T08:27:50.243Z,2.86
2018-02-01T08:30:18.011Z,2.90
2018-02-01T08:32:45.879Z,2.97
2018-02-01T08:35:13.629Z,2.96
2018-02-01T08:37:41.344Z,2.96
2018-02-01T08:40:09.090Z,2.99
2018-02-01T08:42:36.864Z,2.96
2018-02-01T08:45:04.692Z,3.00
2018-02-01T08:47:32.490Z,3.04
2018-02-01T08:50:00.294Z,3.04
2018-02-01T08:52:28.061Z,3.06
2018-02-01T08:54:55.880Z,3.06
2018-02-01T08:57:23.743Z,3.06
2018-02-01T08:59:51.858Z,3.03
2018-02-01T09:02:26.556Z,3.07
2018-02-01T09:04:56.327Z,3.03
2018-02-01T09:07:24.427Z,2.96
2018-02-01T09:09:52.220Z,2.95
2018-02-01T09:12:19.966Z,2.93
2018-02-01T09:14:52.480Z,2.93
2018-02-01T09:17:20.301Z,2.87
2018-02-01T09:19:49.290Z,2.86
2018-02-01T09:22:18.043Z,2.84
2018-02-01T09:24:51.337Z,2.86
2018-02-01T09:27:19.458Z,2.92
2018-02-01T09:29:49.653Z,2.92
2018-02-01T09:32:23.627Z,2.96
2018-02-01T09:34:57.098Z,2.95
2018-02-01T09:37:25.143Z,2.99
2018-02-01T09:39:53.045Z,3.05
2018-02-01T09:42:20.800Z,3.09
2018-02-01T09:44:49.028Z,3.16
2018-02-01T09:47:16.771Z,3.18
2018-02-01T09:49:44.514Z,3.23
2018-02-01T09:52:12.672Z,3.22
2018-02-01T09:54:40.450Z,3.24
2018-02-01T09:57:08.135Z,3.19
2018-02-01T09:59:46.106Z,3.18
2018-02-01T10:02:13.862Z,3.19
2018-02-01T10:04:41.579Z,3.20
2018-02-01T10:07:09.398Z,3.21
2018-02-01T10:09:37.080Z,3.22
2018-02-01T10:12:04.870Z,3.24
2018-02-01T10:14:32.652Z,3.27
2018-02-01T10:17:00.460Z,3.29
2018-02-01T10:19:28.200Z,3.36
2018-02-01T10:21:55.960Z,3.40
2018-02-01T10:24:23.677Z,3.41
2018-02-01T10:26:51.412Z,3.45
2018-02-01T10:29:19.163Z,3.50
2018-02-01T10:31:46.970Z,3.52
2018-02-01T10:34:19.873Z,3.55
2018-02-01T10:36:47.831Z,3.59
2018-02-01T10:39:15.696Z,3.62
2018-02-01T10:41:43.554Z,3.66
2018-02-01T10:44:11.698Z,3.77
2018-02-01T10:49:24.520Z,3.83
2018-02-01T10:51:53.155Z,3.85
2018-02-01T10:54:20.950Z,3.86
2018-02-01T10:56:50.718Z,3.87
2018-02-01T10:59:22.652Z,3.88
2018-02-01T11:01:51.795Z,3.86
2018-02-01T11:04:19.622Z,3.81
2018-02-01T11:06:47.366Z,3.82
2018-02-01T11:09:16.368Z,3.86
2018-02-01T11:11:44.156Z,3.86
2018-02-01T11:14:12.206Z,3.87
2018-02-01T11:16:40.019Z,3.92
2018-02-01T11:19:08.159Z,3.91
2018-02-01T11:21:35.958Z,3.90
2018-02-01T11:24:04.115Z,3.90
2018-02-01T11:26:31.892Z,3.93
2018-02-01T11:28:59.653Z,3.99
2018-02-01T11:31:27.805Z,4.00
2018-02-01T11:33:55.569Z,4.03
2018-02-01T11:36:23.427Z,4.09
2018-02-01T11:38:51.229Z,4.12
2018-02-01T11:41:19.008Z,4.15
2018-02-01T11:43:55.262Z,4.20
2018-02-01T11:46:25.694Z,4.24
2018-02-01T11:48:56.834Z,4.29
2018-02-01T11:51:25.012Z,4.36
2018-02-01T11:53:58.282Z,4.34
2018-02-01T11:56:26.041Z,4.30
2018-02-01T11:58:55.104Z,4.29
2018-02-01T12:01:23.316Z,4.31
2018-02-01T12:03:51.034Z,4.36
2018-02-01T12:06:18.968Z,4.41
2018-02-01T12:08:46.872Z,4.41
2018-02-01T12:11:14.702Z,4.41
2018-02-01T12:13:49.192Z,4.45
2018-02-01T12:16:17.468Z,4.50
2018-02-01T12:18:46.454Z,4.57
2018-02-01T12:21:14.143Z,4.64
2018-02-01T12:23:41.906Z,4.49
2018-02-01T12:26:09.752Z,4.50
2018-02-01T12:28:37.512Z,4.55
2018-02-01T12:31:05.266Z,4.60
2018-02-01T12:33:35.092Z,4.63
2018-02-01T12:36:09.234Z,4.70
2018-02-01T12:38:43.329Z,4.79
2018-02-01T12:41:11.944Z,4.81
2018-02-01T12:43:43.086Z,4.84
2018-02-01T12:46:11.030Z,4.81
2018-02-01T12:48:38.803Z,4.83
2018-02-01T12:51:06.614Z,4.88
2018-02-01T12:53:34.327Z,4.94
2018-02-01T12:56:06.300Z,4.94
2018-02-01T12:58:34.122Z,4.93
2018-02-01T13:01:02.992Z,4.93
2018-02-01T13:03:30.966Z,4.97
2018-02-01T13:06:03.048Z,4.95
2018-02-01T13:08:30.850Z,4.97
2018-02-01T13:11:03.094Z,5.00
2018-02-01T13:13:32.393Z,5.03
2018-02-01T13:16:03.851Z,5.01
2018-02-01T13:18:32.829Z,5.01
2018-02-01T13:21:00.618Z,5.07
2018-02-01T13:23:28.410Z,5.09
2018-02-01T13:25:56.180Z,5.11
2018-02-01T13:28:25.081Z,5.04
2018-02-01T13:30:54.262Z,5.05
2018-02-01T13:33:29.003Z,5.06
2018-02-01T13:35:56.903Z,5.03
2018-02-01T13:38:25.490Z,5.01
2018-02-01T13:40:53.264Z,4.99
2018-02-01T13:43:20.989Z,5.02
2018-02-01T13:45:52.640Z,5.10
2018-02-01T13:48:20.411Z,5.13
2018-02-01T13:50:51.183Z,5.08
2018-02-01T13:53:19.358Z,5.13
2018-02-01T13:55:50.435Z,5.15
2018-02-01T13:58:18.309Z,5.19
2018-02-01T14:00:46.486Z,5.17
2018-02-01T14:03:22.764Z,5.15
2018-02-01T14:06:02.704Z,5.18
2018-02-01T14:08:35.165Z,5.15
2018-02-01T14:11:04.840Z,5.18
2018-02-01T14:13:59.918Z,5.18
2018-02-01T14:16:34.534Z,5.20
2018-02-01T14:19:03.658Z,5.16
2018-02-01T14:21:33.687Z,5.16
2018-02-01T14:24:02.179Z,5.18
2018-02-01T14:26:30.017Z,5.20
2018-02-01T14:28:58.154Z,5.19
2018-02-01T14:31:39.854Z,5.16
2018-02-01T14:34:49.109Z,5.09
2018-02-01T14:37:17.338Z,5.09
2018-02-01T14:39:45.267Z,5.10
2018-02-01T14:42:13.121Z,5.07
2018-02-01T14:44:42.533Z,5.07
2018-02-01T14:49:44.347Z,5.04
2018-02-01T14:52:13.569Z,5.05
2018-02-01T14:54:43.474Z,5.07
2018-02-01T14:57:18.485Z,5.07
2018-02-01T14:59:46.306Z,5.07
2018-02-01T15:02:17.041Z,5.03
2018-02-01T15:04:54.474Z,5.03
2018-02-01T16:03:55.531Z,4.24
2018-02-01T16:06:23.259Z,4.23
2018-02-01T16:08:50.947Z,4.19
2018-02-01T16:11:18.730Z,4.19
2018-02-01T16:13:49.511Z,4.18
2018-02-01T16:16:17.305Z,4.17
2018-02-01T16:18:45.008Z,4.19
2018-02-01T16:21:12.782Z,4.19
2018-02-01T16:23:40.532Z,4.19
2018-02-01T16:26:08.356Z,4.21
2018-02-01T16:28:36.103Z,4.23
2018-02-01T16:31:03.837Z,4.24
2018-02-01T16:33:31.569Z,4.23
2018-02-01T16:35:59.396Z,4.23
2018-02-01T16:38:27.100Z,4.17
2018-02-01T16:40:54.915Z,4.17
2018-02-01T16:43:22.803Z,4.12
2018-02-01T16:45:51.620Z,4.09
2018-02-01T16:48:19.790Z,4.08
2018-02-01T16:50:48.632Z,4.08
2018-02-01T16:53:16.372Z,4.00
2018-02-01T16:55:44.567Z,4.02
2018-02-01T16:58:12.855Z,4.01
2018-02-01T17:00:44.184Z,3.97
2018-02-01T17:03:13.131Z,3.92
2018-02-01T17:05:42.435Z,3.89
2018-02-01T17:08:10.200Z,3.85
2018-02-01T17:10:38.076Z,3.83
2018-02-01T17:13:08.049Z,3.79
2018-02-01T17:15:35.857Z,3.78
2018-02-01T17:18:03.749Z,3.74
2018-02-01T17:20:31.895Z,3.73
2018-02-01T17:23:00.799Z,3.68
2018-02-01T17:25:28.719Z,3.62
2018-02-01T17:27:57.770Z,3.61
2018-02-01T17:30:25.949Z,3.53
2018-02-01T17:32:53.666Z,3.54
2018-02-01T17:35:21.520Z,3.53
2018-02-01T17:37:49.324Z,3.51
2018-02-01T17:40:17.061Z,3.55
2018-02-01T17:42:44.933Z,3.53
2018-02-01T17:45:12.682Z,3.52
2018-02-01T17:47:40.459Z,3.53
2018-02-01T17:50:08.205Z,3.53
2018-02-01T17:52:35.975Z,3.51
2018-02-01T17:55:03.785Z,3.45
2018-02-01T17:57:31.623Z,3.44
2018-02-01T17:59:59.934Z,3.42
2018-02-01T18:02:27.677Z,3.41
2018-02-01T18:04:55.383Z,3.41
2018-02-01T18:07:23.212Z,3.37
2018-02-01T18:09:50.978Z,3.39
2018-02-01T18:12:18.714Z,3.37
2018-02-01T18:14:46.601Z,3.34
2018-02-01T18:17:14.432Z,3.32
2018-02-01T18:19:42.186Z,3.32
2018-02-01T18:22:09.915Z,3.31
2018-02-01T18:24:37.634Z,3.32
2018-02-01T18:27:05.404Z,3.31
2018-02-01T18:29:33.616Z,3.30
2018-02-01T18:32:01.355Z,3.27
2018-02-01T18:34:29.114Z,3.23
2018-02-01T18:36:56.891Z,3.18
2018-02-01T18:39:24.616Z,3.18
2018-02-01T18:41:52.748Z,3.14
2018-02-01T18:44:20.612Z,3.16
2018-02-01T18:46:48.451Z,3.13
2018-02-01T18:49:16.189Z,3.13
2018-02-01T18:51:44.412Z,3.13
2018-02-01T18:54:12.150Z,3.12
2018-02-01T18:56:39.943Z,3.13
2018-02-01T18:59:07.700Z,3.12
2018-02-01T19:01:35.502Z,3.15
2018-02-01T19:04:03.276Z,3.17
2018-02-01T19:06:31.064Z,3.19
2018-02-01T19:08:59.952Z,3.20
2018-02-01T19:11:27.712Z,3.19
2018-02-01T19:13:56.205Z,3.16
2018-02-01T19:16:24.021Z,3.14
2018-02-01T19:18:54.182Z,3.14
2018-02-01T19:21:21.915Z,3.11
2018-02-01T19:23:49.662Z,3.10
2018-02-01T19:26:17.375Z,3.05
2018-02-01T19:28:45.228Z,3.11
2018-02-01T19:31:13.040Z,3.13
2018-02-01T19:33:42.440Z,3.14
2018-02-01T19:36:22.756Z,3.16
2018-02-01T19:38:51.394Z,3.16
2018-02-01T19:41:24.293Z,3.15
2018-02-01T19:43:58.522Z,3.17
2018-02-01T19:46:26.934Z,3.16
2018-02-01T19:52:06.670Z,3.22
2018-02-01T19:54:38.706Z,3.23
2018-02-01T19:57:08.778Z,3.20
2018-02-01T19:59:36.834Z,3.25
2018-02-01T20:02:06.174Z,3.27
2018-02-01T20:04:35.442Z,3.27
2018-02-01T20:07:03.951Z,3.33
2018-02-01T20:09:34.807Z,3.38
2018-02-01T20:12:07.994Z,3.38
2018-02-01T20:14:39.262Z,3.40
2018-02-01T20:17:08.737Z,3.39
2018-02-01T20:19:45.574Z,3.39
2018-02-01T20:22:28.395Z,3.43
2018-02-01T20:24:58.159Z,3.40
2018-02-01T20:27:28.134Z,3.44
2018-02-01T20:30:00.496Z,3.37
2018-02-01T20:32:29.763Z,3.35
2018-02-01T20:35:00.853Z,3.33
2018-02-01T20:37:34.890Z,3.32
2018-02-01T20:40:31.928Z,3.31
2018-02-01T20:43:05.736Z,3.26
2018-02-01T20:45:37.187Z,3.19
2018-02-01T20:48:12.505Z,3.15
2018-02-01T20:50:46.829Z,3.15
2018-02-01T20:53:24.177Z,3.14
2018-02-01T20:55:56.100Z,3.10
2018-02-01T20:58:23.987Z,3.05
2018-02-01T21:00:51.721Z,3.08
2018-02-01T21:03:22.540Z,3.06
2018-02-01T21:05:50.417Z,3.07
2018-02-01T21:08:25.986Z,3.08
2018-02-01T21:10:53.852Z,3.09
2018-02-01T21:13:21.644Z,3.13
2018-02-01T21:15:51.372Z,3.14
2018-02-01T21:18:30.182Z,3.19
2018-02-01T21:20:57.994Z,3.25
2018-02-01T21:23:32.227Z,3.30
2018-02-01T21:26:00.119Z,3.29
2018-02-01T21:28:39.661Z,3.26
2018-02-01T21:31:09.719Z,3.26
2018-02-01T21:33:44.467Z,3.26
2018-02-01T21:39:19.157Z,3.29
2018-02-01T21:41:47.993Z,3.29
2018-02-01T21:44:15.938Z,3.31
2018-02-01T21:46:54.879Z,3.34
2018-02-01T21:52:00.658Z,3.38
2018-02-01T21:54:32.543Z,3.42
2018-02-01T22:03:06.379Z,3.49
2018-02-01T22:05:34.904Z,3.49
2018-02-01T22:08:02.657Z,3.52
2018-02-01T22:10:35.998Z,3.52
2018-02-01T22:13:03.777Z,3.52
2018-02-01T22:15:31.949Z,3.51
2018-02-01T22:17:59.707Z,3.53
2018-02-01T22:20:27.833Z,3.59
2018-02-01T22:22:55.781Z,3.59
2018-02-01T22:25:23.626Z,3.58
2018-02-01T22:27:51.383Z,3.55
2018-02-01T22:30:19.140Z,3.59
2018-02-01T22:32:46.900Z,3.58
2018-02-01T22:35:14.897Z,3.57
2018-02-01T22:37:42.597Z,3.58
2018-02-01T22:40:10.398Z,3.57
2018-02-01T22:42:39.358Z,3.60
2018-02-01T22:45:07.126Z,3.62
2018-02-01T22:47:34.937Z,3.58
2018-02-01T22:50:02.824Z,3.56
2018-02-01T22:52:30.609Z,3.58
2018-02-01T22:54:59.633Z,3.58
2018-02-01T22:57:27.414Z,3.59
2018-02-01T22:59:55.132Z,3.62
2018-02-01T23:02:24.060Z,3.64
2018-02-01T23:04:52.245Z,3.65
2018-02-01T23:07:20.036Z,3.66
2018-02-01T23:09:48.477Z,3.65
2018-02-01T23:14:54.019Z,3.57
2018-02-01T23:17:21.826Z,3.53
2018-02-01T23:19:50.936Z,3.55
2018-02-01T23:22:18.654Z,3.54
2018-02-01T23:24:46.419Z,3.56
2018-02-01T23:27:14.202Z,3.53
2018-02-01T23:29:42.053Z,3.52
2018-02-01T23:32:09.965Z,3.46
2018-02-01T23:34:37.836Z,3.42
2018-02-01T23:37:05.620Z,3.43
2018-02-01T23:39:33.846Z,3.49
2018-02-01T23:42:01.557Z,3.45
2018-02-01T23:44:30.255Z,3.51
2018-02-01T23:46:59.425Z,3.53
2018-02-01T23:49:27.730Z,3.55
2018-02-01T23:51:56.037Z,3.53
2018-02-01T23:54:24.384Z,3.57
2018-02-01T23:56:52.228Z,3.57
2018-02-01T23:59:19.980Z,3.60
